createdAt,value
2018-08-28T00:01:07.893Z,3.07
2018-08-28T00:03:36.873Z,3.10
2018-08-28T00:06:05.365Z,3.43
2018-08-28T00:08:33.985Z,3.08
2018-08-28T00:11:02.554Z,2.97
2018-08-28T00:13:31.097Z,3.20
2018-08-28T00:15:59.654Z,3.50
2018-08-28T00:18:28.107Z,3.67
2018-08-28T00:20:56.566Z,3.50
2018-08-28T00:23:25.416Z,3.77
2018-08-28T00:25:53.915Z,4.03
2018-08-28T00:28:22.398Z,3.10
2018-08-28T00:30:50.869Z,3.77
2018-08-28T00:33:19.325Z,3.80
2018-08-28T00:35:48.145Z,3.43
2018-08-28T00:38:17.443Z,3.87
2018-08-28T00:40:45.930Z,4.27
2018-08-28T00:48:10.619Z,3.77
2018-08-28T00:50:39.138Z,3.90
2018-08-28T00:53:08.568Z,3.70
2018-08-28T00:55:37.069Z,3.90
2018-08-28T00:58:05.603Z,4.90
2018-08-28T01:00:34.073Z,3.52
2018-08-28T01:03:02.573Z,3.80
2018-08-28T01:05:31.618Z,3.40
2018-08-28T01:08:00.247Z,3.87
2018-08-28T01:10:29.090Z,3.60
2018-08-28T01:12:59.565Z,3.93
2018-08-28T01:15:28.034Z,4.73
2018-08-28T01:17:56.517Z,4.80
2018-08-28T01:20:25.023Z,4.93
2018-08-28T01:22:53.482Z,5.33
2018-08-28T01:25:21.977Z,5.10
2018-08-28T01:27:50.429Z,5.00
2018-08-28T01:30:24.601Z,5.60
2018-08-28T01:32:53.066Z,5.50
2018-08-28T01:35:21.916Z,5.37
2018-08-28T01:37:50.393Z,5.73
2018-08-28T01:40:19.161Z,5.53
2018-08-28T01:42:47.601Z,4.97
2018-08-28T01:45:17.406Z,5.62
2018-08-28T01:47:45.862Z,4.90
2018-08-28T02:00:09.062Z,5.20
2018-08-28T02:02:37.524Z,5.03
2018-08-28T02:05:06.253Z,4.47
2018-08-28T02:07:35.883Z,5.03
2018-08-28T02:10:04.431Z,5.33
2018-08-28T02:12:32.922Z,5.17
2018-08-28T02:15:01.391Z,4.10
2018-08-28T02:17:29.863Z,4.50
2018-08-28T02:19:58.352Z,4.53
2018-08-28T02:22:27.295Z,4.07
2018-08-28T02:24:56.015Z,4.40
2018-08-28T02:27:24.500Z,4.70
2018-08-28T02:29:52.970Z,4.50
2018-08-28T02:32:21.444Z,5.88
2018-08-28T02:34:49.912Z,4.93
2018-08-28T02:37:18.433Z,4.50
2018-08-28T02:39:47.076Z,4.90
2018-08-28T02:42:17.370Z,4.97
2018-08-28T02:44:45.909Z,4.43
2018-08-28T02:52:09.967Z,5.17
2018-08-28T02:54:38.452Z,5.10
2018-08-28T02:57:06.926Z,4.43
2018-08-28T02:59:35.409Z,4.35
2018-08-28T03:02:03.975Z,4.70
2018-08-28T03:04:32.558Z,4.65
2018-08-28T03:07:01.522Z,4.20
2018-08-28T03:09:30.603Z,5.13
2018-08-28T03:11:59.109Z,5.20
2018-08-28T03:14:27.625Z,5.70
2018-08-28T03:16:56.072Z,5.37
2018-08-28T03:19:24.828Z,4.93
2018-08-28T03:21:53.308Z,5.63
2018-08-28T03:24:21.788Z,5.50
2018-08-28T03:26:50.236Z,5.00
2018-08-28T03:29:19.712Z,5.83
2018-08-28T03:31:48.176Z,5.53
2018-08-28T03:34:17.470Z,5.60
2018-08-28T03:36:45.957Z,5.07
2018-08-28T03:44:10.398Z,4.97
2018-08-28T03:46:38.855Z,4.70
2018-08-28T03:49:07.973Z,4.53
2018-08-28T03:51:37.176Z,4.60
2018-08-28T03:54:05.680Z,4.90
2018-08-28T03:56:34.153Z,5.92
2018-08-28T03:59:02.665Z,4.77
2018-08-28T04:01:31.127Z,4.37
2018-08-28T04:03:59.642Z,5.37
2018-08-28T04:06:28.575Z,5.27
2018-08-28T04:08:57.067Z,4.90
2018-08-28T04:11:26.328Z,5.03
2018-08-28T04:13:55.056Z,5.00
2018-08-28T04:16:23.555Z,5.13
2018-08-28T04:18:52.026Z,4.80
2018-08-28T04:21:20.529Z,4.70
2018-08-28T04:23:49.009Z,5.10
2018-08-28T04:26:17.546Z,4.40
2018-08-28T04:28:46.061Z,5.43
2018-08-28T04:36:14.804Z,5.50
2018-08-28T04:38:43.280Z,5.90
2018-08-28T04:41:11.912Z,5.17
2018-08-28T04:43:40.412Z,4.95
2018-08-28T04:46:09.049Z,5.30
2018-08-28T04:48:37.519Z,5.50
2018-08-28T04:51:06.187Z,4.83
2018-08-28T04:53:35.425Z,5.47
2018-08-28T04:56:03.903Z,5.37
2018-08-28T04:58:32.737Z,4.75
2018-08-28T05:01:01.190Z,4.80
2018-08-28T05:03:29.642Z,5.80
2018-08-28T05:05:58.134Z,5.17
2018-08-28T05:08:27.608Z,4.78
2018-08-28T05:10:56.069Z,5.53
2018-08-28T05:13:25.473Z,5.10
2018-08-28T05:15:54.011Z,4.60
2018-08-28T05:18:23.288Z,5.10
2018-08-28T05:20:52.378Z,5.40
2018-08-28T05:23:20.870Z,5.10
2018-08-28T05:25:49.813Z,4.90
2018-08-28T05:28:19.509Z,5.33
2018-08-28T05:30:48.016Z,5.10
2018-08-28T05:33:17.342Z,4.80
2018-08-28T05:35:45.832Z,5.10
2018-08-28T05:48:08.680Z,5.10
2018-08-28T05:50:37.738Z,5.00
2018-08-28T05:53:07.113Z,5.40
2018-08-28T05:55:36.061Z,4.83
2018-08-28T05:58:04.554Z,4.93
2018-08-28T06:00:33.024Z,5.60
2018-08-28T06:03:03.157Z,5.67
2018-08-28T06:05:31.633Z,5.42
2018-08-28T06:08:00.101Z,5.37
2018-08-28T06:10:28.913Z,5.70
2018-08-28T06:12:57.381Z,5.30
2018-08-28T06:15:26.770Z,5.87
2018-08-28T06:17:55.261Z,5.10
2018-08-28T06:20:24.154Z,5.60
2018-08-28T06:22:53.526Z,6.20
2018-08-28T06:25:22.050Z,5.67
2018-08-28T06:27:50.518Z,6.00
2018-08-28T06:30:18.997Z,5.17
2018-08-28T06:32:47.741Z,6.57
2018-08-28T06:35:17.320Z,6.00
2018-08-28T06:37:45.783Z,5.60
2018-08-28T06:45:10.099Z,5.10
2018-08-28T06:47:38.569Z,5.33
2018-08-28T06:50:07.897Z,5.17
2018-08-28T06:52:36.924Z,6.22
2018-08-28T06:55:05.742Z,4.85
2018-08-28T06:57:34.187Z,5.58
2018-08-28T07:00:02.693Z,5.03
2018-08-28T07:02:32.763Z,6.15
2018-08-28T07:05:01.369Z,5.10
2018-08-28T07:07:30.459Z,4.78
2018-08-28T07:09:59.279Z,4.20
2018-08-28T07:12:28.377Z,4.80
2018-08-28T07:14:57.341Z,4.07
2018-08-28T07:17:26.194Z,4.03
2018-08-28T07:19:54.670Z,4.00
2018-08-28T07:22:23.649Z,4.07
2018-08-28T07:24:52.106Z,3.70
2018-08-28T07:27:20.569Z,3.58
2018-08-28T07:29:49.547Z,3.40
2018-08-28T07:32:18.043Z,3.10
2018-08-28T07:34:46.664Z,3.50
2018-08-28T07:42:16.051Z,2.77
2018-08-28T07:44:44.525Z,3.17
2018-08-28T07:47:12.973Z,3.10
2018-08-28T07:49:41.557Z,2.77
2018-08-28T07:52:10.660Z,3.20
2018-08-28T07:54:39.133Z,3.20
2018-08-28T07:57:07.614Z,2.70
2018-08-28T07:59:36.066Z,3.50
2018-08-28T08:02:04.563Z,3.00
2018-08-28T08:04:33.975Z,3.10
2018-08-28T08:07:02.447Z,3.10
2018-08-28T08:09:31.602Z,2.60
2018-08-28T08:12:00.102Z,2.90
2018-08-28T08:14:28.550Z,3.10
2018-08-28T08:16:57.612Z,3.30
2018-08-28T08:19:27.231Z,3.30
2018-08-28T08:21:55.694Z,3.53
2018-08-28T08:24:24.150Z,3.13
2018-08-28T08:26:53.006Z,3.30
2018-08-28T08:29:21.473Z,3.20
2018-08-28T08:31:49.920Z,2.70
2018-08-28T08:34:18.443Z,2.70
2018-08-28T08:36:48.029Z,2.60
2018-08-28T08:39:17.324Z,4.10
2018-08-28T08:41:47.725Z,3.90
2018-08-28T08:49:11.370Z,4.00
2018-08-28T08:51:39.857Z,3.03
2018-08-28T08:54:08.358Z,3.00
2018-08-28T08:56:36.904Z,3.03
2018-08-28T08:59:05.388Z,3.07
2018-08-28T09:01:33.893Z,3.08
2018-08-28T09:04:02.614Z,3.52
2018-08-28T09:06:31.845Z,3.63
2018-08-28T09:09:00.318Z,3.40
2018-08-28T09:11:29.345Z,3.20
2018-08-28T09:13:57.807Z,3.50
2018-08-28T09:16:32.879Z,3.20
2018-08-28T09:19:02.231Z,3.30
2018-08-28T09:21:31.009Z,2.70
2018-08-28T09:23:59.626Z,3.30
2018-08-28T09:26:28.183Z,2.60
2018-08-28T09:28:56.654Z,2.67
2018-08-28T09:31:25.808Z,2.63
2018-08-28T09:33:54.890Z,2.70
2018-08-28T09:36:24.006Z,2.90
2018-08-28T09:38:52.571Z,2.97
2018-08-28T09:41:21.033Z,3.00
2018-08-28T09:43:49.532Z,2.77
2018-08-28T09:46:18.649Z,2.77
2018-08-28T09:48:47.112Z,3.07
2018-08-28T09:51:17.410Z,3.60
2018-08-28T09:53:46.366Z,3.10
2018-08-28T10:01:47.039Z,3.43
2018-08-28T10:09:12.942Z,2.67
2018-08-28T10:11:41.531Z,3.00
2018-08-28T10:14:10.902Z,3.60
2018-08-28T10:16:39.462Z,3.17
2018-08-28T10:19:07.987Z,3.70
2018-08-28T10:21:38.170Z,3.15
2018-08-28T10:24:06.868Z,3.90
2018-08-28T10:26:35.345Z,3.90
2018-08-28T10:29:03.818Z,3.60
2018-08-28T10:31:34.413Z,4.43
2018-08-28T10:34:02.867Z,3.90
2018-08-28T10:36:31.394Z,4.57
2018-08-28T10:39:00.958Z,4.97
2018-08-28T10:41:29.435Z,5.83
2018-08-28T10:43:57.891Z,5.03
2018-08-28T10:46:26.525Z,4.90
2018-08-28T10:48:55.034Z,6.23
2018-08-28T10:51:23.524Z,5.60
2018-08-28T10:53:52.498Z,4.77
2018-08-28T10:56:20.959Z,5.12
2018-08-28T10:58:49.516Z,4.80
2018-08-28T11:01:17.924Z,4.80
2018-08-28T11:03:46.397Z,5.40
2018-08-28T11:11:15.499Z,5.57
2018-08-28T11:13:43.979Z,5.10
2018-08-28T11:16:12.476Z,5.15
2018-08-28T11:18:40.980Z,4.73
2018-08-28T11:21:09.453Z,5.70
2018-08-28T11:23:38.694Z,5.40
2018-08-28T11:26:07.475Z,5.10
2018-08-28T11:28:36.703Z,5.10
2018-08-28T11:31:05.326Z,6.40
2018-08-28T11:33:34.122Z,5.03
2018-08-28T11:36:03.490Z,4.90
2018-08-28T11:38:31.986Z,6.35
2018-08-28T11:41:00.494Z,5.50
2018-08-28T11:43:28.962Z,5.93
2018-08-28T11:45:57.441Z,5.87
2018-08-28T11:48:25.952Z,6.40
2018-08-28T11:50:54.426Z,6.60
2018-08-28T11:53:23.011Z,6.98
2018-08-28T11:55:52.880Z,6.60
2018-08-28T11:58:21.394Z,6.95
2018-08-28T12:00:49.863Z,6.70
2018-08-28T12:03:18.365Z,7.53
2018-08-28T12:05:46.835Z,6.87
2018-08-28T12:13:15.303Z,7.50
2018-08-28T12:15:43.813Z,7.50
2018-08-28T12:18:12.270Z,7.20
2018-08-28T12:20:40.762Z,7.23
2018-08-28T12:23:09.244Z,7.70
2018-08-28T12:25:38.045Z,6.93
2018-08-28T12:28:07.428Z,8.10
2018-08-28T12:30:35.898Z,7.03
2018-08-28T12:33:04.394Z,8.20
2018-08-28T12:35:33.950Z,7.42
2018-08-28T12:38:02.447Z,7.17
2018-08-28T12:40:30.958Z,6.45
2018-08-28T12:42:59.462Z,6.80
2018-08-28T12:45:27.945Z,7.80
2018-08-28T12:47:57.026Z,7.50
2018-08-28T12:50:25.659Z,7.53
2018-08-28T12:52:54.138Z,7.20
2018-08-28T12:55:22.632Z,6.80
2018-08-28T12:57:51.634Z,7.40
2018-08-28T13:00:20.118Z,6.50
2018-08-28T13:02:49.148Z,6.40
2018-08-28T13:05:19.139Z,6.22
2018-08-28T13:07:47.614Z,6.57
2018-08-28T13:10:17.426Z,6.40
2018-08-28T13:12:45.941Z,6.97
2018-08-28T13:20:10.977Z,6.87
2018-08-28T13:22:39.426Z,6.90
2018-08-28T13:25:08.753Z,7.03
2018-08-28T13:27:37.698Z,5.97
2018-08-28T13:30:06.246Z,6.60
2018-08-28T13:32:34.693Z,6.27
2018-08-28T13:35:03.186Z,6.20
2018-08-28T13:37:32.504Z,6.40
2018-08-28T13:40:00.977Z,6.77
2018-08-28T13:42:30.138Z,7.37
2018-08-28T13:44:58.627Z,6.90
2018-08-28T13:47:27.600Z,7.30
2018-08-28T13:49:56.093Z,6.67
2018-08-28T13:52:24.574Z,7.30
2018-08-28T13:54:53.048Z,7.50
2018-08-28T13:57:21.561Z,6.70
2018-08-28T13:59:50.156Z,7.57
2018-08-28T14:02:18.519Z,7.03
2018-08-28T14:04:47.209Z,6.70
2018-08-28T14:12:11.011Z,7.03
2018-08-28T14:14:39.491Z,7.20
2018-08-28T14:17:09.108Z,7.07
2018-08-28T14:19:39.309Z,6.90
2018-08-28T14:22:07.798Z,7.47
2018-08-28T14:24:36.292Z,7.67
2018-08-28T14:27:05.694Z,7.47
2018-08-28T14:29:35.265Z,7.47
2018-08-28T14:32:03.798Z,8.13
2018-08-28T14:34:32.310Z,7.87
2018-08-28T14:37:01.465Z,7.20
2018-08-28T14:39:29.960Z,6.77
2018-08-28T14:41:58.454Z,6.65
2018-08-28T14:44:26.921Z,7.60
2018-08-28T14:46:55.853Z,7.12
2018-08-28T14:49:24.425Z,7.80
2018-08-28T14:51:53.521Z,7.20
2018-08-28T14:54:21.997Z,7.40
2018-08-28T14:56:50.545Z,6.93
2018-08-28T14:59:19.606Z,7.40
2018-08-28T15:01:48.093Z,7.23
2018-08-28T15:04:17.443Z,6.83
2018-08-28T15:06:45.959Z,7.70
2018-08-28T15:14:14.457Z,8.10
2018-08-28T15:16:43.002Z,7.27
2018-08-28T15:19:11.467Z,7.55
2018-08-28T15:21:40.298Z,7.50
2018-08-28T15:24:08.819Z,7.60
2018-08-28T15:26:37.289Z,7.00
2018-08-28T15:29:07.104Z,7.77
2018-08-28T15:31:36.430Z,7.57
2018-08-28T15:34:04.898Z,8.20
2018-08-28T15:36:34.025Z,7.58
2018-08-28T15:39:04.579Z,6.50
2018-08-28T15:41:34.266Z,6.72
2018-08-28T15:44:02.815Z,7.80
2018-08-28T15:46:31.306Z,7.33
2018-08-28T15:48:59.804Z,8.37
2018-08-28T15:51:28.504Z,8.03
2018-08-28T15:53:56.817Z,7.87
2018-08-28T15:56:26.249Z,7.87
2018-08-28T15:58:55.685Z,9.27
2018-08-28T16:01:24.850Z,7.60
2018-08-28T16:03:53.385Z,7.80
2018-08-28T16:06:22.657Z,8.06
2018-08-28T16:08:51.238Z,7.90
2018-08-28T16:11:19.718Z,7.63
2018-08-28T16:13:48.213Z,7.87
2018-08-28T16:16:17.477Z,7.37
2018-08-28T16:18:45.934Z,7.73
2018-08-28T16:26:13.881Z,7.13
2018-08-28T16:28:42.367Z,8.20
2018-08-28T16:31:10.843Z,8.40
2018-08-28T16:33:39.950Z,7.23
2018-08-28T16:36:08.461Z,8.27
2018-08-28T16:38:36.913Z,7.60
2018-08-28T16:41:05.508Z,8.33
2018-08-28T16:43:33.959Z,7.75
2018-08-28T16:46:02.582Z,7.78
2018-08-28T16:48:31.821Z,7.47
2018-08-28T16:51:00.270Z,8.00
2018-08-28T16:53:29.797Z,7.50
2018-08-28T16:55:58.348Z,8.30
2018-08-28T16:58:27.174Z,7.90
2018-08-28T17:00:57.353Z,7.37
2018-08-28T17:03:25.853Z,7.53
2018-08-28T17:05:54.316Z,8.33
2018-08-28T17:08:22.821Z,8.57
2018-08-28T17:10:52.245Z,8.10
2018-08-28T17:13:20.775Z,9.10
2018-08-28T17:15:49.261Z,8.33
2018-08-28T17:18:17.781Z,9.80
2018-08-28T17:20:46.276Z,9.40
2018-08-28T17:28:11.478Z,8.00
2018-08-28T17:30:39.938Z,8.40
2018-08-28T17:33:08.490Z,8.73
2018-08-28T17:35:38.554Z,8.33
2018-08-28T17:38:07.702Z,9.17
2018-08-28T17:40:36.618Z,8.50
2018-08-28T17:43:05.254Z,8.70
2018-08-28T17:45:33.761Z,8.90
2018-08-28T17:48:02.241Z,9.30
2018-08-28T17:50:31.363Z,9.90
2018-08-28T17:52:59.994Z,9.00
2018-08-28T17:55:28.465Z,8.60
2018-08-28T17:57:56.949Z,9.10
2018-08-28T18:00:25.427Z,9.03
2018-08-28T18:02:53.590Z,9.27
2018-08-28T18:05:22.084Z,9.10
2018-08-28T18:07:50.594Z,9.30
2018-08-28T18:10:19.058Z,9.07
2018-08-28T18:12:47.905Z,8.57
2018-08-28T18:15:17.474Z,9.30
2018-08-28T18:17:45.954Z,10.10
2018-08-28T18:25:14.772Z,9.77
2018-08-28T18:27:43.233Z,9.30
2018-08-28T18:30:11.706Z,9.63
2018-08-28T18:32:40.941Z,9.07
2018-08-28T18:35:09.430Z,9.15
2018-08-28T18:37:38.706Z,8.87
2018-08-28T18:40:07.391Z,8.43
2018-08-28T18:42:35.846Z,9.97
2018-08-28T18:45:04.360Z,9.30
2018-08-28T18:47:32.851Z,9.30
2018-08-28T18:50:01.334Z,10.13
2018-08-28T18:52:29.803Z,9.07
2018-08-28T18:54:59.240Z,10.10
2018-08-28T18:57:27.712Z,10.45
2018-08-28T18:59:56.164Z,9.60
2018-08-28T19:02:24.690Z,9.60
2018-08-28T19:04:53.177Z,11.20
2018-08-28T19:07:21.689Z,10.17
2018-08-28T19:09:50.193Z,10.40
2018-08-28T19:12:18.714Z,9.60
2018-08-28T19:14:47.266Z,10.13
2018-08-28T19:18:34.835Z,10.47
2018-08-28T19:21:03.431Z,10.13
2018-08-28T19:23:31.894Z,10.30
2018-08-28T19:26:00.463Z,9.70
2018-08-28T19:28:28.932Z,9.70
2018-08-28T19:30:57.410Z,10.32
2018-08-28T19:33:25.923Z,11.70
2018-08-28T19:35:54.646Z,10.27
2018-08-28T19:38:23.931Z,10.50
2018-08-28T19:40:52.891Z,10.65
2018-08-28T19:43:21.395Z,11.24
2018-08-28T19:45:49.824Z,12.40
2018-08-28T19:48:18.310Z,12.00
2018-08-28T19:50:46.790Z,11.60
2018-08-28T19:58:11.660Z,11.23
2018-08-28T20:00:40.107Z,11.03
2018-08-28T20:03:08.595Z,10.93
2018-08-28T20:05:37.124Z,9.33
2018-08-28T20:08:05.803Z,10.13
2018-08-28T20:10:34.262Z,10.70
2018-08-28T20:13:03.010Z,11.23
2018-08-28T20:15:31.479Z,10.72
2018-08-28T20:18:01.034Z,10.87
2018-08-28T20:20:30.225Z,13.68
2018-08-28T20:22:58.702Z,12.90
2018-08-28T20:25:27.153Z,10.63
2018-08-28T20:27:55.658Z,11.73
2018-08-28T20:30:24.140Z,10.70
2018-08-28T20:32:52.603Z,10.87
2018-08-28T20:35:21.110Z,11.60
2018-08-28T20:37:49.589Z,10.47
2018-08-28T20:40:19.006Z,11.07
2018-08-28T20:42:47.712Z,10.17
2018-08-28T20:45:17.534Z,11.93
2018-08-28T20:47:46.034Z,10.73
2018-08-28T20:55:10.343Z,11.07
2018-08-28T20:57:38.798Z,10.90
2018-08-28T21:00:07.515Z,10.60
2018-08-28T21:02:36.051Z,11.30
2018-08-28T21:05:04.857Z,11.15
2018-08-28T21:07:34.485Z,13.27
2018-08-28T21:10:03.013Z,12.30
2018-08-28T21:12:31.498Z,10.70
2018-08-28T21:15:00.011Z,11.50
2018-08-28T21:17:28.517Z,11.28
2018-08-28T21:19:56.973Z,12.67
2018-08-28T21:22:25.458Z,13.90
2018-08-28T21:24:54.533Z,12.23
2018-08-28T21:27:23.022Z,13.18
2018-08-28T21:29:51.474Z,12.80
2018-08-28T21:32:19.973Z,12.67
2018-08-28T21:34:48.434Z,12.70
2018-08-28T21:37:17.578Z,12.95
2018-08-28T21:39:46.046Z,14.37
2018-08-28T21:47:11.362Z,12.60
2018-08-28T21:49:39.833Z,12.60
2018-08-28T21:52:08.309Z,11.90
2018-08-28T21:54:36.801Z,11.27
2018-08-28T21:57:05.894Z,12.63
2018-08-28T21:59:34.409Z,11.85
2018-08-28T22:02:03.145Z,12.03
2018-08-28T22:04:31.654Z,12.98
2018-08-28T22:07:05.905Z,12.40
2018-08-28T22:09:34.401Z,12.13
2018-08-28T22:12:02.905Z,12.50
2018-08-28T22:14:31.945Z,11.93
2018-08-28T22:17:00.489Z,12.18
2018-08-28T22:19:29.010Z,12.70
2018-08-28T22:21:57.683Z,12.50
2018-08-28T22:24:26.217Z,12.20
2018-08-28T22:26:54.706Z,11.80
2018-08-28T22:29:23.797Z,12.70
2018-08-28T22:31:52.277Z,11.93
2018-08-28T22:34:20.774Z,13.00
2018-08-28T22:36:49.261Z,14.07
2018-08-28T22:39:19.370Z,14.00
2018-08-28T22:41:47.891Z,12.53
2018-08-28T22:49:12.473Z,15.37
2018-08-28T22:51:40.924Z,15.80
2018-08-28T22:54:09.400Z,15.05
2018-08-28T22:56:37.884Z,14.60
2018-08-28T22:59:06.366Z,14.87
2018-08-28T23:01:34.822Z,13.17
2018-08-28T23:04:03.391Z,14.50
2018-08-28T23:06:31.834Z,15.10
2018-08-28T23:09:00.298Z,14.70
2018-08-28T23:11:29.406Z,15.50
2018-08-28T23:13:57.873Z,15.53
2018-08-28T23:16:26.386Z,13.70
2018-08-28T23:18:54.912Z,16.33
2018-08-28T23:21:23.384Z,15.03
2018-08-28T23:23:51.831Z,16.50
2018-08-28T23:26:20.305Z,14.53
2018-08-28T23:28:48.765Z,15.87
2018-08-28T23:31:18.699Z,16.42
2018-08-28T23:33:47.571Z,15.13
2018-08-28T23:36:17.403Z,15.48
2018-08-28T23:38:45.865Z,16.00
2018-08-28T23:51:10.218Z,15.67
2018-08-28T23:53:38.766Z,15.97
2018-08-28T23:56:07.381Z,15.47
2018-08-28T23:58:35.933Z,15.40
